createdAt,value
2023-01-20T00:04:30.814Z,15.80
2023-01-20T00:06:59.736Z,15.20
2023-01-20T00:09:29.525Z,15.10
2023-01-20T00:11:58.902Z,15.20
2023-01-20T00:14:30.170Z,15.30
2023-01-20T00:17:00.596Z,15.20
2023-01-20T00:19:31.224Z,15.50
2023-01-20T00:22:00.296Z,15.60
2023-01-20T00:24:29.534Z,15.20
2023-01-20T00:26:58.791Z,15.20
2023-01-20T00:29:27.692Z,15.50
2023-01-20T00:31:56.806Z,15.70
2023-01-20T00:34:25.776Z,15.70
2023-01-20T00:36:56.400Z,15.30
2023-01-20T00:39:25.403Z,14.90
2023-01-20T00:41:54.430Z,15.50
2023-01-20T00:44:24.182Z,15.30
2023-01-20T00:46:53.245Z,14.70
2023-01-20T00:49:23.261Z,15.20
2023-01-20T00:51:51.958Z,15.20
2023-01-20T00:54:21.590Z,14.80
2023-01-20T00:56:50.424Z,15.20
2023-01-20T00:59:19.539Z,14.80
2023-01-20T01:01:49.094Z,15.20
2023-01-20T01:04:18.177Z,15.00
2023-01-20T01:06:47.475Z,15.40
2023-01-20T01:09:16.543Z,15.30
2023-01-20T01:11:46.919Z,15.70
2023-01-20T01:14:16.923Z,15.10
2023-01-20T01:16:46.176Z,15.30
2023-01-20T01:19:15.994Z,15.30
2023-01-20T01:24:14.316Z,15.30
2023-01-20T01:26:43.795Z,14.60
2023-01-20T01:29:14.497Z,15.30
2023-01-20T01:31:44.091Z,14.90
2023-01-20T01:34:13.253Z,14.80
2023-01-20T01:36:44.119Z,15.80
2023-01-20T01:39:16.070Z,14.90
2023-01-20T01:41:46.939Z,14.60
2023-01-20T01:44:21.380Z,14.60
2023-01-20T01:46:54.278Z,14.80
2023-01-20T01:52:00.164Z,14.60
2023-01-20T01:54:33.303Z,14.70
2023-01-20T01:57:05.057Z,14.40
2023-01-20T01:59:38.493Z,14.20
2023-01-20T02:02:07.703Z,14.60
2023-01-20T02:04:38.928Z,14.60
2023-01-20T02:07:13.123Z,14.40
2023-01-20T02:09:43.494Z,14.80
2023-01-20T02:12:15.488Z,14.60
2023-01-20T02:14:48.352Z,14.20
2023-01-20T02:17:23.793Z,14.30
2023-01-20T02:20:35.689Z,14.30
2023-01-20T02:23:13.118Z,14.80
2023-01-20T02:26:10.887Z,14.60
2023-01-20T02:29:17.471Z,14.60
2023-01-20T02:32:09.266Z,14.80
2023-01-20T02:34:41.132Z,14.40
2023-01-20T02:37:14.960Z,14.80
2023-01-20T02:39:53.723Z,14.60
2023-01-20T02:42:26.755Z,14.40
2023-01-20T02:44:58.747Z,14.60
2023-01-20T02:47:34.179Z,14.10
2023-01-20T02:50:08.905Z,14.20
2023-01-20T02:52:40.689Z,14.50
2023-01-20T02:57:44.454Z,14.20
2023-01-20T03:00:17.759Z,14.40
2023-01-20T03:02:52.395Z,14.60
2023-01-20T03:05:25.300Z,14.50
2023-01-20T03:07:54.928Z,14.40
2023-01-20T03:10:26.010Z,14.60
2023-01-20T03:12:58.646Z,14.60
2023-01-20T03:15:36.112Z,14.80
2023-01-20T03:18:05.604Z,14.10
2023-01-20T03:20:33.781Z,14.90
2023-01-20T03:23:01.909Z,14.70
2023-01-20T03:25:30.089Z,14.60
2023-01-20T03:30:26.710Z,14.50
2023-01-20T03:32:55.115Z,14.10
2023-01-20T03:35:25.533Z,14.80
2023-01-20T03:37:53.711Z,14.70
2023-01-20T03:40:24.853Z,14.90
2023-01-20T03:43:00.133Z,14.60
2023-01-20T03:45:35.817Z,15.00
2023-01-20T03:48:09.999Z,14.70
2023-01-20T03:50:44.047Z,14.60
2023-01-20T03:53:22.121Z,14.90
2023-01-20T03:55:53.334Z,14.80
2023-01-20T03:58:24.804Z,14.40
2023-01-20T04:00:55.079Z,14.10
2023-01-20T04:03:27.891Z,14.80
2023-01-20T04:05:59.411Z,14.70
2023-01-20T04:08:32.845Z,14.50
2023-01-20T04:11:04.776Z,13.90
2023-01-20T04:13:33.203Z,14.60
2023-01-20T04:16:03.537Z,14.90
2023-01-20T04:21:03.083Z,14.50
2023-01-20T04:23:35.607Z,14.20
2023-01-20T04:26:03.917Z,14.70
2023-01-20T04:28:32.283Z,14.80
2023-01-20T04:31:00.609Z,14.80
2023-01-20T04:33:28.955Z,14.90
2023-01-20T04:35:57.044Z,14.60
2023-01-20T04:38:26.621Z,14.80
2023-01-20T04:40:54.725Z,14.60
2023-01-20T04:43:22.863Z,14.90
2023-01-20T04:48:19.831Z,14.50
2023-01-20T04:50:47.962Z,14.70
2023-01-20T04:53:19.123Z,14.70
2023-01-20T04:55:48.764Z,14.70
2023-01-20T04:58:17.876Z,13.90
2023-01-20T05:00:46.548Z,14.90
2023-01-20T05:03:15.361Z,15.10
2023-01-20T05:05:43.521Z,15.00
2023-01-20T05:08:11.613Z,15.20
2023-01-20T05:10:39.831Z,15.00
2023-01-20T05:13:09.304Z,15.20
2023-01-20T05:15:37.539Z,15.40
2023-01-20T05:18:05.717Z,15.70
2023-01-20T05:20:33.927Z,15.40
2023-01-20T05:23:02.065Z,15.60
2023-01-20T05:25:30.273Z,14.90
2023-01-20T05:28:00.184Z,15.30
2023-01-20T05:30:29.684Z,15.70
2023-01-20T05:32:58.422Z,15.40
2023-01-20T05:35:26.664Z,15.60
2023-01-20T05:37:55.640Z,15.00
2023-01-20T05:40:23.981Z,15.30
2023-01-20T05:42:52.094Z,15.90
2023-01-20T05:45:20.260Z,15.70
2023-01-20T05:47:49.756Z,15.70
2023-01-20T05:52:49.249Z,15.50
2023-01-20T05:55:17.657Z,15.40
2023-01-20T05:57:45.769Z,15.40
2023-01-20T06:00:20.085Z,15.20
2023-01-20T06:02:49.767Z,15.50
2023-01-20T06:05:18.387Z,15.30
2023-01-20T06:07:46.544Z,15.60
2023-01-20T06:10:14.728Z,15.40
2023-01-20T06:12:42.872Z,14.90
2023-01-20T06:15:12.273Z,15.80
2023-01-20T06:17:40.470Z,15.40
2023-01-20T06:22:39.508Z,15.70
2023-01-20T06:25:08.165Z,15.70
2023-01-20T06:27:36.273Z,15.50
2023-01-20T06:30:06.594Z,15.90
2023-01-20T06:32:34.868Z,15.40
2023-01-20T06:35:02.968Z,16.10
2023-01-20T06:37:32.473Z,15.80
2023-01-20T06:40:00.606Z,15.50
2023-01-20T06:42:28.780Z,15.60
2023-01-20T06:44:56.880Z,15.10
2023-01-20T06:47:25.096Z,15.70
2023-01-20T06:49:55.683Z,15.80
2023-01-20T06:52:23.942Z,15.70
2023-01-20T06:54:53.424Z,16.00
2023-01-20T06:57:21.534Z,15.30
2023-01-20T06:59:49.643Z,15.90
2023-01-20T07:02:18.747Z,15.90
2023-01-20T07:04:46.907Z,15.80
2023-01-20T07:07:15.328Z,16.20
2023-01-20T07:09:43.501Z,15.90
2023-01-20T07:12:13.016Z,15.00
2023-01-20T07:14:41.108Z,15.70
2023-01-20T07:17:12.909Z,16.00
2023-01-20T07:19:41.042Z,16.00
2023-01-20T07:22:10.500Z,15.80
2023-01-20T07:24:38.757Z,15.40
2023-01-20T07:27:06.888Z,16.00
2023-01-20T07:29:38.041Z,15.80
2023-01-20T07:32:08.520Z,15.70
2023-01-20T07:34:36.728Z,15.90
2023-01-20T07:37:04.869Z,15.80
2023-01-20T07:39:33.124Z,15.70
2023-01-20T07:42:01.244Z,16.20
2023-01-20T07:44:32.373Z,16.20
2023-01-20T07:49:30.359Z,15.50
2023-01-20T07:51:58.483Z,16.00
2023-01-20T07:54:26.616Z,15.70
2023-01-20T07:56:54.764Z,15.30
2023-01-20T07:59:23.904Z,16.30
2023-01-20T08:01:52.105Z,15.50
2023-01-20T08:04:21.661Z,15.80
2023-01-20T08:06:50.150Z,15.90
2023-01-20T08:09:18.286Z,15.80
2023-01-20T08:11:46.402Z,15.00
2023-01-20T08:14:14.516Z,15.50
2023-01-20T08:16:42.670Z,15.50
2023-01-20T08:19:10.904Z,15.40
2023-01-20T08:21:40.547Z,15.50
2023-01-20T08:24:08.821Z,15.60
2023-01-20T08:26:37.164Z,15.70
2023-01-20T08:29:07.420Z,14.70
2023-01-20T08:31:35.763Z,15.90
2023-01-20T08:34:04.009Z,15.60
2023-01-20T08:36:34.775Z,15.90
2023-01-20T08:39:06.855Z,15.70
2023-01-20T08:41:36.551Z,15.70
2023-01-20T08:44:06.697Z,16.00
2023-01-20T08:46:35.692Z,15.30
2023-01-20T08:49:06.714Z,15.80
2023-01-20T08:51:35.202Z,15.80
2023-01-20T08:54:04.820Z,15.90
2023-01-20T08:56:34.120Z,16.10
2023-01-20T09:01:36.348Z,16.20
2023-01-20T09:04:07.660Z,16.30
2023-01-20T09:06:40.824Z,16.00
2023-01-20T09:09:10.991Z,16.10
2023-01-20T09:11:40.678Z,16.10
2023-01-20T09:14:08.820Z,16.60
2023-01-20T09:16:36.954Z,16.30
2023-01-20T09:19:05.071Z,16.40
2023-01-20T09:21:33.502Z,16.10
2023-01-20T09:24:01.654Z,16.40
2023-01-20T09:26:38.794Z,16.50
2023-01-20T09:29:13.925Z,16.50
2023-01-20T09:31:45.306Z,16.60
2023-01-20T09:34:16.424Z,16.80
2023-01-20T09:36:44.535Z,17.00
2023-01-20T09:39:32.334Z,16.40
2023-01-20T09:42:24.595Z,16.90
2023-01-20T09:45:24.870Z,16.30
2023-01-20T09:48:01.313Z,17.30
2023-01-20T09:51:04.268Z,17.10
2023-01-20T09:53:51.532Z,17.30
2023-01-20T09:56:23.658Z,16.90
2023-01-20T09:58:59.940Z,16.60
2023-01-20T10:01:31.971Z,17.40
2023-01-20T10:04:06.783Z,17.30
2023-01-20T10:06:39.000Z,17.00
2023-01-20T10:09:17.336Z,17.00
2023-01-20T10:11:49.439Z,17.10
2023-01-20T10:14:24.486Z,17.00
2023-01-20T10:16:59.444Z,17.20
2023-01-20T10:19:34.801Z,17.20
2023-01-20T10:22:11.745Z,17.30
2023-01-20T10:24:47.283Z,16.70
2023-01-20T10:27:15.482Z,17.40
2023-01-20T10:29:49.233Z,17.80
2023-01-20T10:32:26.082Z,17.90
2023-01-20T10:34:57.743Z,17.80
2023-01-20T10:37:26.955Z,17.60
2023-01-20T10:39:59.635Z,17.80
2023-01-20T10:42:28.609Z,17.10
2023-01-20T10:45:00.099Z,17.20
2023-01-20T10:47:42.387Z,17.70
2023-01-20T10:50:39.959Z,17.70
2023-01-20T10:53:20.480Z,17.30
2023-01-20T10:56:04.725Z,17.90
2023-01-20T10:58:37.994Z,18.10
2023-01-20T11:01:09.558Z,17.90
2023-01-20T11:03:41.914Z,17.90
2023-01-20T11:06:16.090Z,18.30
2023-01-20T11:08:44.527Z,18.20
2023-01-20T11:11:17.141Z,18.40
2023-01-20T11:13:45.681Z,18.40
2023-01-20T11:16:18.909Z,19.40
2023-01-20T11:18:57.484Z,18.80
2023-01-20T11:21:26.985Z,19.00
2023-01-20T11:23:58.444Z,19.30
2023-01-20T11:26:28.806Z,18.90
2023-01-20T11:28:59.508Z,19.20
2023-01-20T11:31:41.299Z,18.90
2023-01-20T11:34:24.360Z,19.20
2023-01-20T11:37:13.021Z,19.00
2023-01-20T11:40:00.371Z,19.20
2023-01-20T11:42:30.758Z,19.10
2023-01-20T11:45:19.859Z,19.30
2023-01-20T11:48:05.226Z,19.20
2023-01-20T11:50:36.014Z,19.30
2023-01-20T11:53:33.928Z,19.10
2023-01-20T11:56:08.078Z,19.20
2023-01-20T11:58:54.700Z,19.40
2023-01-20T12:01:26.246Z,19.40
2023-01-20T12:04:21.148Z,19.30
2023-01-20T12:06:54.997Z,19.20
2023-01-20T12:09:31.244Z,19.50
2023-01-20T12:12:03.440Z,19.70
2023-01-20T12:14:35.601Z,19.70
2023-01-20T12:17:20.346Z,19.50
2023-01-20T12:20:06.249Z,19.40
2023-01-20T12:22:44.429Z,19.60
2023-01-20T12:25:23.540Z,20.10
2023-01-20T12:27:55.434Z,19.60
2023-01-20T12:33:23.872Z,19.90
2023-01-20T12:36:12.612Z,19.90
2023-01-20T12:38:48.753Z,19.60
2023-01-20T12:41:25.980Z,19.70
2023-01-20T12:44:03.742Z,19.60
2023-01-20T12:46:40.110Z,19.80
2023-01-20T12:49:32.125Z,19.90
2023-01-20T12:52:30.746Z,19.80
2023-01-20T12:55:17.186Z,19.30
2023-01-20T12:58:04.266Z,19.70
2023-01-20T13:00:54.419Z,19.30
2023-01-20T13:03:53.847Z,19.90
2023-01-20T13:06:43.629Z,19.90
2023-01-20T13:09:30.076Z,19.50
2023-01-20T13:12:10.446Z,19.90
2023-01-20T13:14:43.151Z,20.00
2023-01-20T13:17:20.935Z,19.40
2023-01-20T13:19:50.991Z,19.60
2023-01-20T13:22:21.257Z,20.00
2023-01-20T13:24:53.530Z,20.10
2023-01-20T13:27:28.744Z,19.80
2023-01-20T13:29:59.049Z,20.20
2023-01-20T13:32:33.112Z,19.40
2023-01-20T13:35:02.234Z,19.70
2023-01-20T13:37:37.566Z,20.40
2023-01-20T13:40:49.438Z,20.20
2023-01-20T13:43:55.419Z,19.60
2023-01-20T13:46:45.671Z,19.80
2023-01-20T13:49:16.158Z,19.70
2023-01-20T13:54:29.128Z,19.50
2023-01-20T13:57:36.044Z,19.20
2023-01-20T14:00:16.145Z,19.50
2023-01-20T14:05:30.690Z,19.50
2023-01-20T14:12:57.633Z,19.50
2023-01-20T14:15:34.395Z,19.40
2023-01-20T14:18:03.428Z,19.20
2023-01-20T14:20:32.085Z,19.40
2023-01-20T14:23:31.897Z,19.40
2023-01-20T14:26:02.347Z,19.90
2023-01-20T14:28:33.713Z,19.30
2023-01-20T14:31:19.757Z,19.50
2023-01-20T14:33:51.904Z,19.10
2023-01-20T14:38:58.260Z,19.50
2023-01-20T14:41:47.142Z,19.30
2023-01-20T14:44:20.899Z,19.80
2023-01-20T14:46:52.132Z,19.40
2023-01-20T14:49:22.271Z,19.20
2023-01-20T14:51:52.225Z,19.10
2023-01-20T14:54:35.705Z,19.50
2023-01-20T14:57:18.799Z,19.60
2023-01-20T14:59:48.804Z,18.90
2023-01-20T15:04:45.308Z,18.90
2023-01-20T15:07:20.929Z,19.10
2023-01-20T15:09:57.259Z,19.20
2023-01-20T15:12:53.563Z,18.90
2023-01-20T15:15:28.430Z,19.00
2023-01-20T15:18:14.807Z,18.90
2023-01-20T15:20:45.317Z,19.00
2023-01-20T15:23:21.080Z,18.70
2023-01-20T15:25:51.733Z,18.70
2023-01-20T15:28:26.722Z,19.40
2023-01-20T15:30:58.296Z,18.60
2023-01-20T15:33:27.064Z,18.20
2023-01-20T15:35:57.332Z,18.20
2023-01-20T15:38:29.009Z,18.00
2023-01-20T15:40:57.387Z,18.20
2023-01-20T15:43:25.525Z,18.10
2023-01-20T15:45:53.680Z,18.10
2023-01-20T15:48:24.406Z,18.30
2023-01-20T15:50:53.914Z,17.90
2023-01-20T15:53:22.100Z,18.20
2023-01-20T15:55:52.035Z,18.20
2023-01-20T15:58:26.932Z,18.00
2023-01-20T16:00:56.240Z,18.20
2023-01-20T16:03:26.616Z,18.40
2023-01-20T16:05:58.768Z,18.00
2023-01-20T16:08:37.309Z,18.30
2023-01-20T16:16:03.401Z,18.40
2023-01-20T16:18:32.907Z,17.90
2023-01-20T16:21:01.130Z,17.90
2023-01-20T16:25:59.636Z,18.00
2023-01-20T16:28:27.763Z,18.00
2023-01-20T16:30:57.771Z,18.20
2023-01-20T16:33:26.360Z,18.00
2023-01-20T16:35:57.187Z,18.10
2023-01-20T16:38:26.444Z,18.10
2023-01-20T16:40:58.849Z,18.20
2023-01-20T16:43:27.005Z,17.60
2023-01-20T16:45:56.263Z,18.20
2023-01-20T16:48:25.947Z,18.10
2023-01-20T16:50:56.384Z,17.80
2023-01-20T16:55:52.989Z,17.80
2023-01-20T16:58:21.107Z,17.50
2023-01-20T17:05:46.073Z,18.10
2023-01-20T17:08:15.980Z,17.80
2023-01-20T17:10:47.815Z,18.00
2023-01-20T17:15:44.695Z,17.80
2023-01-20T17:20:44.563Z,17.90
2023-01-20T17:23:12.726Z,17.50
2023-01-20T17:25:42.220Z,18.10
2023-01-20T17:28:10.344Z,17.50
2023-01-20T17:30:39.514Z,17.60
2023-01-20T17:33:07.715Z,17.80
2023-01-20T17:35:36.275Z,17.70
2023-01-20T17:38:04.658Z,17.90
2023-01-20T17:43:04.293Z,17.60
2023-01-20T17:45:32.553Z,17.80
2023-01-20T17:50:32.477Z,17.60
2023-01-20T17:53:00.605Z,17.10
2023-01-20T17:55:29.633Z,17.50
2023-01-20T17:58:01.956Z,17.90
2023-01-20T18:00:31.544Z,17.80
2023-01-20T18:02:59.667Z,17.90
2023-01-20T18:05:28.734Z,17.90
2023-01-20T18:07:56.846Z,18.30
2023-01-20T18:10:24.969Z,18.00
2023-01-20T18:12:53.112Z,17.90
2023-01-20T18:15:21.688Z,18.00
2023-01-20T18:17:51.180Z,18.00
2023-01-20T18:20:19.499Z,17.30
2023-01-20T18:22:49.415Z,17.60
2023-01-20T18:25:18.095Z,17.60
2023-01-20T18:30:15.569Z,17.90
2023-01-20T18:32:43.925Z,17.70
2023-01-20T18:35:16.269Z,17.50
2023-01-20T18:37:49.273Z,18.20
2023-01-20T18:40:20.646Z,18.50
2023-01-20T18:42:48.891Z,18.40
2023-01-20T18:45:17.130Z,18.60
2023-01-20T18:47:45.641Z,18.60
2023-01-20T18:50:18.567Z,18.70
2023-01-20T18:52:46.804Z,18.60
2023-01-20T18:55:15.003Z,18.50
2023-01-20T18:57:43.165Z,18.00
2023-01-20T19:00:12.552Z,17.50
2023-01-20T19:02:40.772Z,17.50
2023-01-20T19:05:09.487Z,17.40
2023-01-20T19:07:39.087Z,17.80
2023-01-20T19:10:07.762Z,17.70
2023-01-20T19:15:04.520Z,17.90
2023-01-20T19:17:33.078Z,17.20
2023-01-20T19:22:30.925Z,17.70
2023-01-20T19:25:00.483Z,17.50
2023-01-20T19:27:28.621Z,18.20
2023-01-20T19:32:25.219Z,17.80
2023-01-20T19:34:53.386Z,17.60
2023-01-20T19:37:21.543Z,18.10
2023-01-20T19:39:50.338Z,17.60
2023-01-20T19:42:19.872Z,17.90
2023-01-20T19:44:48.003Z,18.20
2023-01-20T19:47:16.124Z,18.60
2023-01-20T19:49:44.252Z,18.80
2023-01-20T19:52:12.423Z,18.80
2023-01-20T19:54:40.573Z,18.90
2023-01-20T19:57:08.689Z,18.70
2023-01-20T19:59:40.813Z,19.00
2023-01-20T20:02:10.124Z,19.00
2023-01-20T20:04:38.422Z,19.10
2023-01-20T20:07:06.569Z,18.80
2023-01-20T20:09:35.453Z,18.10
2023-01-20T20:12:06.146Z,17.90
2023-01-20T20:17:05.015Z,16.60
2023-01-20T20:19:33.168Z,15.90
2023-01-20T20:22:01.299Z,16.80
2023-01-20T20:24:29.488Z,16.70
2023-01-20T20:26:57.815Z,16.60
2023-01-20T20:29:25.975Z,16.80
2023-01-20T20:31:54.139Z,17.10
2023-01-20T20:34:23.790Z,17.10
2023-01-20T20:36:51.939Z,17.10
2023-01-20T20:39:21.023Z,17.20
2023-01-20T20:41:49.251Z,17.30
2023-01-20T20:44:17.506Z,17.20
2023-01-20T20:46:45.852Z,17.60
2023-01-20T20:49:15.923Z,17.30
2023-01-20T20:51:46.230Z,17.70
2023-01-20T20:54:17.381Z,17.30
2023-01-20T20:56:46.292Z,17.10
2023-01-20T20:59:14.446Z,17.70
2023-01-20T21:04:11.682Z,17.10
2023-01-20T21:06:39.931Z,17.20
2023-01-20T21:09:09.712Z,17.00
2023-01-20T21:11:38.636Z,17.40
2023-01-20T21:14:07.615Z,17.30
2023-01-20T21:16:36.098Z,17.00
2023-01-20T21:19:05.192Z,17.60
2023-01-20T21:21:33.365Z,17.50
2023-01-20T21:24:01.865Z,17.10
2023-01-20T21:26:31.547Z,17.20
2023-01-20T21:29:02.083Z,17.00
2023-01-20T21:31:31.883Z,16.70
2023-01-20T21:34:02.435Z,17.30
2023-01-20T21:36:33.975Z,17.00
2023-01-20T21:39:02.300Z,16.70
2023-01-20T21:41:31.821Z,16.90
2023-01-20T21:44:17.379Z,16.90
2023-01-20T21:46:47.089Z,16.70
2023-01-20T21:49:32.420Z,16.60
2023-01-20T21:52:20.241Z,16.40
2023-01-20T21:57:18.177Z,16.70
2023-01-20T21:59:46.814Z,15.80
2023-01-20T22:02:15.697Z,16.70
2023-01-20T22:07:15.277Z,16.10
2023-01-20T22:09:43.523Z,16.10
2023-01-20T22:12:12.504Z,16.40
2023-01-20T22:14:43.828Z,16.40
2023-01-20T22:17:13.466Z,15.60
2023-01-20T22:19:41.872Z,16.60
2023-01-20T22:22:10.023Z,15.90
2023-01-20T22:24:38.218Z,15.80
2023-01-20T22:27:06.353Z,15.80
2023-01-20T22:29:34.503Z,15.80
2023-01-20T22:32:04.994Z,15.60
2023-01-20T22:34:33.207Z,15.40
2023-01-20T22:37:01.711Z,15.40
2023-01-20T22:39:30.124Z,15.70
2023-01-20T22:41:58.787Z,15.30
2023-01-20T22:44:26.970Z,15.20
2023-01-20T22:46:58.731Z,15.30
2023-01-20T22:49:29.892Z,15.50
2023-01-20T22:51:58.088Z,14.70
2023-01-20T22:54:27.702Z,15.60
2023-01-20T22:56:56.009Z,15.30
2023-01-20T22:59:24.245Z,15.40
2023-01-20T23:01:52.452Z,14.70
2023-01-20T23:04:20.600Z,15.30
2023-01-20T23:06:50.170Z,15.30
2023-01-20T23:09:19.836Z,15.50
2023-01-20T23:11:49.024Z,15.40
2023-01-20T23:14:17.214Z,14.90
2023-01-20T23:16:45.413Z,15.50
2023-01-20T23:19:13.723Z,15.30
2023-01-20T23:21:41.889Z,15.50
2023-01-20T23:24:11.447Z,16.00
2023-01-20T23:26:39.611Z,15.80
2023-01-20T23:29:09.073Z,15.30
2023-01-20T23:31:37.365Z,15.00
2023-01-20T23:34:05.551Z,14.90
2023-01-20T23:36:33.873Z,15.70
2023-01-20T23:39:03.547Z,15.30
2023-01-20T23:41:33.224Z,15.30
2023-01-20T23:44:02.711Z,15.20
2023-01-20T23:46:30.967Z,14.70
2023-01-20T23:48:59.113Z,15.20
2023-01-20T23:51:27.342Z,15.00
2023-01-20T23:53:56.800Z,14.90
2023-01-20T23:56:25.857Z,14.80
2023-01-20T23:58:55.400Z,14.80
